sensor_id;sensor_type;location;lat;lon;timestamp;pressure;altitude;pressure_sealevel;temperature;humidity
33845;BME280;20145;43.118;25.694;2023-03-16T00:00:52;98489.41;;;10.78;57.11
33845;BME280;20145;43.118;25.694;2023-03-16T00:03:18;98497.69;;;10.89;57.08
33845;BME280;20145;43.118;25.694;2023-03-16T00:05:49;98487.50;;;10.83;56.85
33845;BME280;20145;43.118;25.694;2023-03-16T00:08:15;98490.72;;;10.91;56.52
33845;BME280;20145;43.118;25.694;2023-03-16T00:10:41;98490.41;;;10.73;57.21
33845;BME280;20145;43.118;25.694;2023-03-16T00:13:15;98493.84;;;10.73;56.88
33845;BME280;20145;43.118;25.694;2023-03-16T00:15:51;98499.75;;;10.77;57.13
33845;BME280;20145;43.118;25.694;2023-03-16T00:18:17;98492.09;;;10.74;57.87
33845;BME280;20145;43.118;25.694;2023-03-16T00:20:43;98492.94;;;10.74;57.53
33845;BME280;20145;43.118;25.694;2023-03-16T00:23:08;98498.09;;;10.74;57.16
33845;BME280;20145;43.118;25.694;2023-03-16T00:25:34;98497.28;;;10.72;56.97
33845;BME280;20145;43.118;25.694;2023-03-16T00:28:00;98505.31;;;10.61;57.21
33845;BME280;20145;43.118;25.694;2023-03-16T00:30:29;98502.88;;;10.57;57.57
33845;BME280;20145;43.118;25.694;2023-03-16T00:32:55;98510.53;;;10.58;56.91
33845;BME280;20145;43.118;25.694;2023-03-16T00:35:21;98510.53;;;10.58;56.77
33845;BME280;20145;43.118;25.694;2023-03-16T00:37:46;98510.88;;;10.46;58.35
33845;BME280;20145;43.118;25.694;2023-03-16T00:40:12;98510.03;;;10.45;58.37
33845;BME280;20145;43.118;25.694;2023-03-16T00:42:38;98512.56;;;10.47;57.88
33845;BME280;20145;43.118;25.694;2023-03-16T00:45:04;98515.19;;;10.45;57.74
33845;BME280;20145;43.118;25.694;2023-03-16T00:47:31;98519.34;;;10.51;57.59
33845;BME280;20145;43.118;25.694;2023-03-16T00:49:58;98518.72;;;10.43;57.69
33845;BME280;20145;43.118;25.694;2023-03-16T00:52:24;98511.16;;;10.35;57.54
33845;BME280;20145;43.118;25.694;2023-03-16T00:54:52;98524.13;;;10.32;58.26
33845;BME280;20145;43.118;25.694;2023-03-16T00:57:19;98516.59;;;10.23;58.03
33845;BME280;20145;43.118;25.694;2023-03-16T00:59:46;98508.78;;;10.27;57.53
33845;BME280;20145;43.118;25.694;2023-03-16T01:02:14;98506.19;;;10.27;57.71
33845;BME280;20145;43.118;25.694;2023-03-16T01:04:40;98505.50;;;10.19;58.43
33845;BME280;20145;43.118;25.694;2023-03-16T01:07:08;98498.16;;;10.04;58.81
33845;BME280;20145;43.118;25.694;2023-03-16T01:09:35;98501.69;;;10.00;58.46
33845;BME280;20145;43.118;25.694;2023-03-16T01:12:13;98500.25;;;9.90;59.15
33845;BME280;20145;43.118;25.694;2023-03-16T01:14:39;98494.53;;;9.77;59.63
33845;BME280;20145;43.118;25.694;2023-03-16T01:17:06;98502.16;;;9.81;59.47
33845;BME280;20145;43.118;25.694;2023-03-16T01:19:34;98498.75;;;9.81;60.08
33845;BME280;20145;43.118;25.694;2023-03-16T01:22:01;98504.94;;;9.72;59.64
33845;BME280;20145;43.118;25.694;2023-03-16T01:24:28;98506.72;;;9.70;59.67
33845;BME280;20145;43.118;25.694;2023-03-16T01:26:54;98517.03;;;9.69;60.10
33845;BME280;20145;43.118;25.694;2023-03-16T01:29:19;98521.44;;;9.64;60.45
33845;BME280;20145;43.118;25.694;2023-03-16T01:31:45;98529.38;;;9.54;60.52
33845;BME280;20145;43.118;25.694;2023-03-16T01:34:10;98547.44;;;9.53;61.28
33845;BME280;20145;43.118;25.694;2023-03-16T01:36:43;98549.28;;;9.48;61.68
33845;BME280;20145;43.118;25.694;2023-03-16T01:39:11;98539.16;;;9.38;62.66
33845;BME280;20145;43.118;25.694;2023-03-16T01:41:38;98546.78;;;9.43;63.92
33845;BME280;20145;43.118;25.694;2023-03-16T01:44:04;98559.03;;;9.32;66.29
33845;BME280;20145;43.118;25.694;2023-03-16T01:46:30;98554.03;;;9.26;66.66
33845;BME280;20145;43.118;25.694;2023-03-16T01:49:06;98551.41;;;9.27;67.97
33845;BME280;20145;43.118;25.694;2023-03-16T01:51:48;98538.94;;;9.07;69.21
33845;BME280;20145;43.118;25.694;2023-03-16T01:54:20;98551.09;;;9.01;70.03
33845;BME280;20145;43.118;25.694;2023-03-16T01:56:51;98551.84;;;9.06;70.36
33845;BME280;20145;43.118;25.694;2023-03-16T01:59:21;98539.88;;;9.03;71.28
33845;BME280;20145;43.118;25.694;2023-03-16T02:01:48;98539.09;;;9.00;71.88
33845;BME280;20145;43.118;25.694;2023-03-16T02:06:48;98542.63;;;8.96;72.92
33845;BME280;20145;43.118;25.694;2023-03-16T02:09:15;98546.75;;;9.04;72.86
33845;BME280;20145;43.118;25.694;2023-03-16T02:11:42;98547.97;;;8.85;73.45
33845;BME280;20145;43.118;25.694;2023-03-16T02:14:10;98560.59;;;8.97;73.81
33845;BME280;20145;43.118;25.694;2023-03-16T02:16:37;98567.47;;;8.95;74.60
33845;BME280;20145;43.118;25.694;2023-03-16T02:19:10;98573.38;;;9.02;73.88
33845;BME280;20145;43.118;25.694;2023-03-16T02:21:43;98573.38;;;9.00;74.20
33845;BME280;20145;43.118;25.694;2023-03-16T02:24:11;98577.66;;;9.01;74.33
33845;BME280;20145;43.118;25.694;2023-03-16T02:26:54;98573.38;;;9.00;74.48
33845;BME280;20145;43.118;25.694;2023-03-16T02:32:04;98587.91;;;9.03;74.56
33845;BME280;20145;43.118;25.694;2023-03-16T02:34:30;98597.50;;;8.94;74.73
33845;BME280;20145;43.118;25.694;2023-03-16T02:36:57;98592.47;;;8.90;75.35
33845;BME280;20145;43.118;25.694;2023-03-16T02:39:23;98599.81;;;9.08;74.62
33845;BME280;20145;43.118;25.694;2023-03-16T02:41:49;98597.19;;;9.11;74.11
33845;BME280;20145;43.118;25.694;2023-03-16T02:44:24;98606.03;;;8.98;73.87
33845;BME280;20145;43.118;25.694;2023-03-16T02:46:57;98606.81;;;9.02;74.96
33845;BME280;20145;43.118;25.694;2023-03-16T02:49:37;98611.88;;;9.06;74.41
33845;BME280;20145;43.118;25.694;2023-03-16T02:52:04;98607.00;;;8.92;74.84
33845;BME280;20145;43.118;25.694;2023-03-16T02:54:30;98613.09;;;8.87;75.68
33845;BME280;20145;43.118;25.694;2023-03-16T02:56:56;98621.50;;;8.95;74.21
33845;BME280;20145;43.118;25.694;2023-03-16T02:59:21;98622.31;;;8.97;74.46
33845;BME280;20145;43.118;25.694;2023-03-16T03:01:47;98628.28;;;9.01;74.21
33845;BME280;20145;43.118;25.694;2023-03-16T03:04:13;98633.72;;;8.84;75.02
33845;BME280;20145;43.118;25.694;2023-03-16T03:06:39;98625.19;;;8.80;75.41
33845;BME280;20145;43.118;25.694;2023-03-16T03:09:07;98616.97;;;8.61;76.63
33845;BME280;20145;43.118;25.694;2023-03-16T03:11:33;98616.09;;;8.62;76.11
33845;BME280;20145;43.118;25.694;2023-03-16T03:13:58;98626.38;;;8.62;76.92
33845;BME280;20145;43.118;25.694;2023-03-16T03:16:24;98636.63;;;8.64;76.06
33845;BME280;20145;43.118;25.694;2023-03-16T03:18:50;98642.53;;;8.69;75.82
33845;BME280;20145;43.118;25.694;2023-03-16T03:21:17;98643.25;;;8.79;75.43
33845;BME280;20145;43.118;25.694;2023-03-16T03:23:43;98644.06;;;8.81;75.47
33845;BME280;20145;43.118;25.694;2023-03-16T03:26:13;98640.38;;;8.96;74.88
33845;BME280;20145;43.118;25.694;2023-03-16T03:28:42;98654.91;;;8.98;74.67
33845;BME280;20145;43.118;25.694;2023-03-16T03:31:16;98651.53;;;8.94;74.78
33845;BME280;20145;43.118;25.694;2023-03-16T03:33:42;98640.56;;;8.85;74.12
33845;BME280;20145;43.118;25.694;2023-03-16T03:36:08;98651.09;;;8.71;73.79
33845;BME280;20145;43.118;25.694;2023-03-16T03:38:35;98665.69;;;8.69;74.40
33845;BME280;20145;43.118;25.694;2023-03-16T03:41:01;98661.56;;;8.59;73.58
33845;BME280;20145;43.118;25.694;2023-03-16T03:43:27;98665.78;;;8.63;74.26
33845;BME280;20145;43.118;25.694;2023-03-16T03:45:56;98654.78;;;8.53;73.93
33845;BME280;20145;43.118;25.694;2023-03-16T03:48:23;98657.41;;;8.50;74.10
33845;BME280;20145;43.118;25.694;2023-03-16T03:50:49;98689.25;;;8.41;74.13
33845;BME280;20145;43.118;25.694;2023-03-16T03:53:14;98686.59;;;8.49;74.42
33845;BME280;20145;43.118;25.694;2023-03-16T03:55:40;98684.19;;;8.35;74.42
33845;BME280;20145;43.118;25.694;2023-03-16T03:58:06;98697.09;;;8.32;74.94
33845;BME280;20145;43.118;25.694;2023-03-16T04:00:31;98675.84;;;8.21;74.88
33845;BME280;20145;43.118;25.694;2023-03-16T04:02:57;98696.34;;;8.22;74.86
33845;BME280;20145;43.118;25.694;2023-03-16T04:05:24;98690.63;;;8.03;75.59
33845;BME280;20145;43.118;25.694;2023-03-16T04:07:54;98689.09;;;7.89;76.47
33845;BME280;20145;43.118;25.694;2023-03-16T04:10:25;98700.97;;;7.99;75.72
33845;BME280;20145;43.118;25.694;2023-03-16T04:12:51;98699.59;;;7.73;76.84
33845;BME280;20145;43.118;25.694;2023-03-16T04:15:17;98698.66;;;7.77;76.93
33845;BME280;20145;43.118;25.694;2023-03-16T04:17:43;98697.88;;;7.74;77.03
33845;BME280;20145;43.118;25.694;2023-03-16T04:20:09;98689.41;;;7.64;77.68
33845;BME280;20145;43.118;25.694;2023-03-16T04:22:42;98696.22;;;7.67;76.73
33845;BME280;20145;43.118;25.694;2023-03-16T04:25:09;98692.00;;;7.61;76.33
33845;BME280;20145;43.118;25.694;2023-03-16T04:27:34;98701.47;;;7.56;77.42
33845;BME280;20145;43.118;25.694;2023-03-16T04:30:05;98696.41;;;7.50;77.43
33845;BME280;20145;43.118;25.694;2023-03-16T04:32:32;98691.31;;;7.47;76.41
33845;BME280;20145;43.118;25.694;2023-03-16T04:34:58;98686.22;;;7.44;76.49
33845;BME280;20145;43.118;25.694;2023-03-16T04:37:24;98704.94;;;7.53;76.23
33845;BME280;20145;43.118;25.694;2023-03-16T04:39:49;98698.25;;;7.37;76.63
33845;BME280;20145;43.118;25.694;2023-03-16T04:42:15;98706.75;;;7.42;76.99
33845;BME280;20145;43.118;25.694;2023-03-16T04:44:41;98709.41;;;7.36;77.04
33845;BME280;20145;43.118;25.694;2023-03-16T04:47:10;98696.56;;;7.36;77.23
33845;BME280;20145;43.118;25.694;2023-03-16T04:49:35;98694.78;;;7.43;77.03
33845;BME280;20145;43.118;25.694;2023-03-16T04:52:01;98698.22;;;7.43;76.99
33845;BME280;20145;43.118;25.694;2023-03-16T04:54:27;98693.94;;;7.42;76.99
33845;BME280;20145;43.118;25.694;2023-03-16T04:56:52;98691.53;;;7.27;77.77
33845;BME280;20145;43.118;25.694;2023-03-16T04:59:18;98697.44;;;7.35;77.74
33845;BME280;20145;43.118;25.694;2023-03-16T05:01:43;98707.75;;;7.32;77.52
33845;BME280;20145;43.118;25.694;2023-03-16T05:04:09;98700.91;;;7.31;77.60
33845;BME280;20145;43.118;25.694;2023-03-16T05:06:34;98718.03;;;7.27;77.48
33845;BME280;20145;43.118;25.694;2023-03-16T05:09:00;98724.09;;;7.20;78.24
33845;BME280;20145;43.118;25.694;2023-03-16T05:11:26;98720.00;;;7.01;79.85
33845;BME280;20145;43.118;25.694;2023-03-16T05:13:52;98731.91;;;7.06;79.67
33845;BME280;20145;43.118;25.694;2023-03-16T05:16:17;98753.28;;;7.08;79.77
33845;BME280;20145;43.118;25.694;2023-03-16T05:18:43;98743.03;;;7.10;79.57
33845;BME280;20145;43.118;25.694;2023-03-16T05:21:08;98763.38;;;7.27;78.96
33845;BME280;20145;43.118;25.694;2023-03-16T05:23:34;98761.75;;;7.17;79.69
33845;BME280;20145;43.118;25.694;2023-03-16T05:26:00;98760.03;;;7.17;79.47
33845;BME280;20145;43.118;25.694;2023-03-16T05:28:26;98752.41;;;7.09;79.48
33845;BME280;20145;43.118;25.694;2023-03-16T05:30:51;98772.78;;;7.28;78.97
33845;BME280;20145;43.118;25.694;2023-03-16T05:33:17;98781.31;;;7.28;79.99
33845;BME280;20145;43.118;25.694;2023-03-16T05:35:42;98777.22;;;7.09;80.55
33845;BME280;20145;43.118;25.694;2023-03-16T05:38:08;98755.22;;;6.80;81.30
33845;BME280;20145;43.118;25.694;2023-03-16T05:40:34;98786.72;;;6.96;81.86
33845;BME280;20145;43.118;25.694;2023-03-16T05:43:01;98794.41;;;6.95;82.28
33845;BME280;20145;43.118;25.694;2023-03-16T05:45:29;98792.72;;;6.92;81.93
33845;BME280;20145;43.118;25.694;2023-03-16T05:47:54;98801.28;;;6.96;82.65
33845;BME280;20145;43.118;25.694;2023-03-16T05:50:21;98805.50;;;7.01;82.56
33845;BME280;20145;43.118;25.694;2023-03-16T05:52:47;98799.56;;;6.91;82.26
33845;BME280;20145;43.118;25.694;2023-03-16T05:55:14;98819.09;;;7.12;83.12
33845;BME280;20145;43.118;25.694;2023-03-16T05:57:41;98797.00;;;6.90;82.76
33845;BME280;20145;43.118;25.694;2023-03-16T06:00:08;98820.03;;;7.02;82.72
33845;BME280;20145;43.118;25.694;2023-03-16T06:02:44;98827.00;;;6.82;83.16
33845;BME280;20145;43.118;25.694;2023-03-16T06:05:12;98818.69;;;6.43;85.27
33845;BME280;20145;43.118;25.694;2023-03-16T06:07:37;98835.81;;;6.35;87.60
33845;BME280;20145;43.118;25.694;2023-03-16T06:10:04;98844.28;;;6.49;86.38
33845;BME280;20145;43.118;25.694;2023-03-16T06:12:31;98851.13;;;6.44;87.19
33845;BME280;20145;43.118;25.694;2023-03-16T06:14:57;98856.25;;;6.48;87.55
33845;BME280;20145;43.118;25.694;2023-03-16T06:17:22;98857.09;;;6.40;87.21
33845;BME280;20145;43.118;25.694;2023-03-16T06:19:48;98863.94;;;6.39;87.63
33845;BME280;20145;43.118;25.694;2023-03-16T06:22:13;98867.38;;;6.37;88.02
33845;BME280;20145;43.118;25.694;2023-03-16T06:24:39;98873.41;;;6.30;88.78
33845;BME280;20145;43.118;25.694;2023-03-16T06:27:05;98876.84;;;6.21;89.28
33845;BME280;20145;43.118;25.694;2023-03-16T06:29:31;98875.09;;;6.23;91.29
33845;BME280;20145;43.118;25.694;2023-03-16T06:31:57;98863.22;;;5.97;91.54
33845;BME280;20145;43.118;25.694;2023-03-16T06:34:23;98887.97;;;6.03;92.14
33845;BME280;20145;43.118;25.694;2023-03-16T06:36:48;98891.38;;;6.08;92.09
33845;BME280;20145;43.118;25.694;2023-03-16T06:39:14;98893.06;;;6.09;92.18
33845;BME280;20145;43.118;25.694;2023-03-16T06:41:40;98900.75;;;6.06;93.17
33845;BME280;20145;43.118;25.694;2023-03-16T06:44:07;98911.00;;;5.89;93.05
33845;BME280;20145;43.118;25.694;2023-03-16T06:46:33;98917.00;;;6.02;93.20
33845;BME280;20145;43.118;25.694;2023-03-16T06:48:59;98923.81;;;6.14;92.35
33845;BME280;20145;43.118;25.694;2023-03-16T06:51:26;98930.66;;;6.10;94.02
33845;BME280;20145;43.118;25.694;2023-03-16T06:53:51;98938.34;;;6.02;93.36
33845;BME280;20145;43.118;25.694;2023-03-16T06:56:17;98942.59;;;6.00;93.62
33845;BME280;20145;43.118;25.694;2023-03-16T06:58:42;98940.06;;;5.96;93.48
33845;BME280;20145;43.118;25.694;2023-03-16T07:01:08;98955.41;;;6.02;93.74
33845;BME280;20145;43.118;25.694;2023-03-16T07:03:34;98954.50;;;5.92;93.88
33845;BME280;20145;43.118;25.694;2023-03-16T07:05:59;98945.16;;;5.77;93.02
33845;BME280;20145;43.118;25.694;2023-03-16T07:08:26;98963.91;;;5.78;92.89
33845;BME280;20145;43.118;25.694;2023-03-16T07:10:51;98960.50;;;5.71;92.78
33845;BME280;20145;43.118;25.694;2023-03-16T07:13:19;98965.63;;;5.61;93.32
33845;BME280;20145;43.118;25.694;2023-03-16T07:15:44;98974.13;;;5.56;95.14
33845;BME280;20145;43.118;25.694;2023-03-16T07:18:10;98964.75;;;5.58;95.23
33845;BME280;20145;43.118;25.694;2023-03-16T07:20:37;98969.88;;;5.52;94.47
33845;BME280;20145;43.118;25.694;2023-03-16T07:23:02;98980.09;;;5.48;93.78
33845;BME280;20145;43.118;25.694;2023-03-16T07:25:29;98984.34;;;5.30;95.21
33845;BME280;20145;43.118;25.694;2023-03-16T07:27:56;98993.72;;;5.45;95.05
33845;BME280;20145;43.118;25.694;2023-03-16T07:30:22;98998.03;;;5.49;94.99
33845;BME280;20145;43.118;25.694;2023-03-16T07:32:49;98998.03;;;5.43;95.30
33845;BME280;20145;43.118;25.694;2023-03-16T07:35:15;98994.59;;;5.35;95.48
33845;BME280;20145;43.118;25.694;2023-03-16T07:37:41;98998.88;;;5.41;96.29
33845;BME280;20145;43.118;25.694;2023-03-16T07:40:08;99007.38;;;5.38;97.68
33845;BME280;20145;43.118;25.694;2023-03-16T07:42:34;99014.13;;;5.21;97.37
33845;BME280;20145;43.118;25.694;2023-03-16T07:45:01;99016.75;;;5.36;97.32
33845;BME280;20145;43.118;25.694;2023-03-16T07:47:27;99012.47;;;5.33;97.99
33845;BME280;20145;43.118;25.694;2023-03-16T07:49:54;99010.75;;;5.19;98.72
33845;BME280;20145;43.118;25.694;2023-03-16T07:52:20;99014.19;;;5.30;98.05
33845;BME280;20145;43.118;25.694;2023-03-16T07:54:45;99024.38;;;5.25;97.62
33845;BME280;20145;43.118;25.694;2023-03-16T07:57:11;99006.44;;;5.08;98.41
33845;BME280;20145;43.118;25.694;2023-03-16T07:59:36;99032.94;;;5.30;97.44
33845;BME280;20145;43.118;25.694;2023-03-16T08:02:02;99032.09;;;5.27;98.28
33845;BME280;20145;43.118;25.694;2023-03-16T08:04:28;99036.38;;;5.35;97.72
33845;BME280;20145;43.118;25.694;2023-03-16T08:06:54;99039.66;;;5.04;96.90
33845;BME280;20145;43.118;25.694;2023-03-16T08:09:25;99016.63;;;4.96;98.20
33845;BME280;20145;43.118;25.694;2023-03-16T08:11:51;99034.59;;;5.18;98.55
33845;BME280;20145;43.118;25.694;2023-03-16T08:14:16;99035.38;;;4.94;99.33
33845;BME280;20145;43.118;25.694;2023-03-16T08:16:42;99038.81;;;5.06;99.08
33845;BME280;20145;43.118;25.694;2023-03-16T08:19:07;99036.25;;;5.09;98.76
33845;BME280;20145;43.118;25.694;2023-03-16T08:21:34;99040.53;;;5.07;98.14
33845;BME280;20145;43.118;25.694;2023-03-16T08:24:00;99043.97;;;5.14;98.11
33845;BME280;20145;43.118;25.694;2023-03-16T08:26:26;99046.53;;;5.20;98.16
33845;BME280;20145;43.118;25.694;2023-03-16T08:28:52;99043.19;;;5.41;98.05
33845;BME280;20145;43.118;25.694;2023-03-16T08:31:18;99058.56;;;5.50;97.54
33845;BME280;20145;43.118;25.694;2023-03-16T08:33:46;99059.44;;;5.49;97.84
33845;BME280;20145;43.118;25.694;2023-03-16T08:36:13;99044.00;;;5.25;97.61
33845;BME280;20145;43.118;25.694;2023-03-16T08:38:40;99055.88;;;5.18;98.07
33845;BME280;20145;43.118;25.694;2023-03-16T08:41:06;99071.31;;;5.33;98.46
33845;BME280;20145;43.118;25.694;2023-03-16T08:43:32;99068.66;;;5.09;97.95
33845;BME280;20145;43.118;25.694;2023-03-16T08:45:58;99076.41;;;5.30;98.05
33845;BME280;20145;43.118;25.694;2023-03-16T08:48:24;99072.09;;;5.23;98.50
33845;BME280;20145;43.118;25.694;2023-03-16T08:50:50;99084.00;;;5.09;98.74
33845;BME280;20145;43.118;25.694;2023-03-16T08:53:18;99072.00;;;4.97;98.88
33845;BME280;20145;43.118;25.694;2023-03-16T08:55:45;99071.16;;;5.04;100.00
33845;BME280;20145;43.118;25.694;2023-03-16T08:58:11;99072.94;;;5.18;98.77
33845;BME280;20145;43.118;25.694;2023-03-16T09:00:38;99082.31;;;5.20;99.38
33845;BME280;20145;43.118;25.694;2023-03-16T09:03:06;99072.13;;;5.28;98.64
33845;BME280;20145;43.118;25.694;2023-03-16T09:05:32;99083.28;;;5.41;98.75
33845;BME280;20145;43.118;25.694;2023-03-16T09:07:58;99071.22;;;5.07;97.86
33845;BME280;20145;43.118;25.694;2023-03-16T09:10:24;99091.78;;;5.40;97.97
33845;BME280;20145;43.118;25.694;2023-03-16T09:12:52;99093.44;;;5.24;98.94
33845;BME280;20145;43.118;25.694;2023-03-16T09:15:18;99095.19;;;5.35;98.59
33845;BME280;20145;43.118;25.694;2023-03-16T09:17:46;99100.38;;;5.55;99.00
33845;BME280;20145;43.118;25.694;2023-03-16T09:20:14;99105.47;;;5.46;98.07
33845;BME280;20145;43.118;25.694;2023-03-16T09:22:41;99096.97;;;5.59;97.45
33845;BME280;20145;43.118;25.694;2023-03-16T09:25:07;99091.91;;;5.75;96.56
33845;BME280;20145;43.118;25.694;2023-03-16T09:27:35;99091.00;;;5.64;95.24
33845;BME280;20145;43.118;25.694;2023-03-16T09:30:05;99104.72;;;5.79;96.59
33845;BME280;20145;43.118;25.694;2023-03-16T09:32:31;99110.63;;;5.71;95.70
33845;BME280;20145;43.118;25.694;2023-03-16T09:34:58;99114.03;;;5.59;96.26
33845;BME280;20145;43.118;25.694;2023-03-16T09:37:24;99114.91;;;5.69;96.32
33845;BME280;20145;43.118;25.694;2023-03-16T09:39:50;99115.81;;;5.80;95.61
33845;BME280;20145;43.118;25.694;2023-03-16T09:42:29;99119.22;;;5.90;95.35
33845;BME280;20145;43.118;25.694;2023-03-16T09:47:46;99125.97;;;5.58;95.86
33845;BME280;20145;43.118;25.694;2023-03-16T09:50:27;99124.22;;;5.51;96.51
33845;BME280;20145;43.118;25.694;2023-03-16T09:53:02;99140.56;;;5.79;96.40
33845;BME280;20145;43.118;25.694;2023-03-16T09:55:32;99141.28;;;5.49;95.86
33845;BME280;20145;43.118;25.694;2023-03-16T09:58:00;99146.41;;;5.46;96.27
33845;BME280;20145;43.118;25.694;2023-03-16T10:04:00;99150.56;;;5.32;96.74
33845;BME280;20145;43.118;25.694;2023-03-16T10:06:02;99148.09;;;5.47;96.41
33845;BME280;20145;43.118;25.694;2023-03-16T10:08:38;99148.16;;;5.64;96.97
33845;BME280;20145;43.118;25.694;2023-03-16T10:11:23;99147.25;;;5.47;95.81
33845;BME280;20145;43.118;25.694;2023-03-16T10:17:00;99168.41;;;5.17;97.12
33845;BME280;20145;43.118;25.694;2023-03-16T10:22:04;99165.88;;;5.20;97.23
33845;BME280;20145;43.118;25.694;2023-03-16T10:27:16;99169.22;;;5.09;97.93
33845;BME280;20145;43.118;25.694;2023-03-16T10:29:43;99172.53;;;4.95;96.43
33845;BME280;20145;43.118;25.694;2023-03-16T10:32:14;99167.47;;;5.01;96.99
33845;BME280;20145;43.118;25.694;2023-03-16T10:34:55;99173.44;;;5.00;96.18
33845;BME280;20145;43.118;25.694;2023-03-16T10:37:23;99179.28;;;4.83;97.19
33845;BME280;20145;43.118;25.694;2023-03-16T10:39:48;99181.03;;;4.92;97.51
33845;BME280;20145;43.118;25.694;2023-03-16T10:42:16;99177.81;;;5.22;97.10
33845;BME280;20145;43.118;25.694;2023-03-16T10:44:42;99175.22;;;5.14;95.58
33845;BME280;20145;43.118;25.694;2023-03-16T10:47:22;99184.59;;;5.17;95.67
33845;BME280;20145;43.118;25.694;2023-03-16T10:49:48;99179.41;;;5.06;95.68
33845;BME280;20145;43.118;25.694;2023-03-16T10:54:55;99176.84;;;5.03;96.65
33845;BME280;20145;43.118;25.694;2023-03-16T10:59:52;99166.72;;;5.16;95.48
33845;BME280;20145;43.118;25.694;2023-03-16T11:02:20;99184.59;;;5.14;96.14
33845;BME280;20145;43.118;25.694;2023-03-16T11:04:48;99170.84;;;4.98;96.43
33845;BME280;20145;43.118;25.694;2023-03-16T11:07:16;99177.78;;;5.21;97.07
33845;BME280;20145;43.118;25.694;2023-03-16T11:09:43;99159.75;;;4.91;95.06
33845;BME280;20145;43.118;25.694;2023-03-16T11:12:35;99187.19;;;5.20;96.20
33845;BME280;20145;43.118;25.694;2023-03-16T11:15:01;99193.09;;;5.11;95.70
33845;BME280;20145;43.118;25.694;2023-03-16T11:17:37;99188.81;;;5.06;95.56
33845;BME280;20145;43.118;25.694;2023-03-16T11:20:13;99185.41;;;5.08;95.04
33845;BME280;20145;43.118;25.694;2023-03-16T11:22:43;99188.88;;;5.18;95.47
33845;BME280;20145;43.118;25.694;2023-03-16T11:25:32;99190.56;;;5.13;95.80
33845;BME280;20145;43.118;25.694;2023-03-16T11:33:32;99182.03;;;5.11;95.74
33845;BME280;20145;43.118;25.694;2023-03-16T11:41:52;99186.22;;;5.00;96.65
33845;BME280;20145;43.118;25.694;2023-03-16T11:52:31;99201.50;;;4.90;97.59
33845;BME280;20145;43.118;25.694;2023-03-16T11:58:32;99207.56;;;5.05;97.80
33845;BME280;20145;43.118;25.694;2023-03-16T12:01:13;99207.38;;;4.82;97.95
33845;BME280;20145;43.118;25.694;2023-03-16T12:07:05;99211.72;;;4.90;98.22
33845;BME280;20145;43.118;25.694;2023-03-16T12:17:29;99215.88;;;4.78;99.39
33845;BME280;20145;43.118;25.694;2023-03-16T12:22:41;99214.22;;;4.87;99.31
33845;BME280;20145;43.118;25.694;2023-03-16T12:25:17;99224.50;;;4.95;99.64
33845;BME280;20145;43.118;25.694;2023-03-16T12:27:46;99229.69;;;5.03;99.60
33845;BME280;20145;43.118;25.694;2023-03-16T12:33:10;99237.44;;;5.13;99.71
33845;BME280;20145;43.118;25.694;2023-03-16T12:38:36;99235.56;;;4.91;98.73
33845;BME280;20145;43.118;25.694;2023-03-16T12:41:31;99238.16;;;4.96;98.88
33845;BME280;20145;43.118;25.694;2023-03-16T12:48:57;99243.28;;;4.97;100.00
33845;BME280;20145;43.118;25.694;2023-03-16T12:51:35;99242.41;;;4.95;98.17
33845;BME280;20145;43.118;25.694;2023-03-16T12:54:02;99251.81;;;4.98;99.78
33845;BME280;20145;43.118;25.694;2023-03-16T12:56:29;99246.78;;;5.08;100.00
33845;BME280;20145;43.118;25.694;2023-03-16T12:58:59;99255.19;;;4.94;99.00
33845;BME280;20145;43.118;25.694;2023-03-16T13:01:35;99256.81;;;4.87;100.00
33845;BME280;20145;43.118;25.694;2023-03-16T13:04:13;99258.59;;;4.94;100.00
33845;BME280;20145;43.118;25.694;2023-03-16T13:06:46;99262.00;;;4.95;100.00
33845;BME280;20145;43.118;25.694;2023-03-16T13:09:23;99257.72;;;4.92;100.00
33845;BME280;20145;43.118;25.694;2023-03-16T13:11:49;99272.38;;;5.11;100.00
33845;BME280;20145;43.118;25.694;2023-03-16T13:14:33;99266.34;;;5.06;99.65
33845;BME280;20145;43.118;25.694;2023-03-16T13:17:24;99280.00;;;5.08;99.17
33845;BME280;20145;43.118;25.694;2023-03-16T13:20:01;99272.38;;;5.11;99.15
33845;BME280;20145;43.118;25.694;2023-03-16T13:22:48;99272.41;;;5.16;99.39
33845;BME280;20145;43.118;25.694;2023-03-16T13:25:34;99277.50;;;5.14;97.71
33845;BME280;20145;43.118;25.694;2023-03-16T13:28:06;99271.50;;;5.11;98.57
33845;BME280;20145;43.118;25.694;2023-03-16T13:30:35;99283.63;;;5.35;97.68
33845;BME280;20145;43.118;25.694;2023-03-16T13:33:13;99278.47;;;5.27;96.21
33845;BME280;20145;43.118;25.694;2023-03-16T13:35:43;99289.56;;;5.31;96.97
33845;BME280;20145;43.118;25.694;2023-03-16T13:38:13;99293.03;;;5.42;96.17
33845;BME280;20145;43.118;25.694;2023-03-16T13:40:47;99297.25;;;5.37;96.25
33845;BME280;20145;43.118;25.694;2023-03-16T13:43:15;99293.75;;;5.20;96.69
33845;BME280;20145;43.118;25.694;2023-03-16T13:45:42;99290.28;;;5.13;96.05
33845;BME280;20145;43.118;25.694;2023-03-16T13:48:12;99301.31;;;5.09;97.27
33845;BME280;20145;43.118;25.694;2023-03-16T13:50:38;99291.13;;;5.15;96.77
33845;BME280;20145;43.118;25.694;2023-03-16T13:53:15;99302.16;;;5.06;97.26
33845;BME280;20145;43.118;25.694;2023-03-16T13:55:44;99298.66;;;4.98;96.61
33845;BME280;20145;43.118;25.694;2023-03-16T13:58:20;99296.13;;;5.01;98.02
33845;BME280;20145;43.118;25.694;2023-03-16T14:00:47;99304.78;;;5.17;98.42
33845;BME280;20145;43.118;25.694;2023-03-16T14:03:18;99310.69;;;5.05;97.34
33845;BME280;20145;43.118;25.694;2023-03-16T14:05:46;99309.03;;;5.10;98.07
33845;BME280;20145;43.118;25.694;2023-03-16T14:08:18;99307.38;;;5.19;97.37
33845;BME280;20145;43.118;25.694;2023-03-16T14:10:45;99310.00;;;5.31;97.84
33845;BME280;20145;43.118;25.694;2023-03-16T14:16:04;99310.88;;;5.31;97.72
33845;BME280;20145;43.118;25.694;2023-03-16T14:18:39;99317.75;;;5.35;97.26
33845;BME280;20145;43.118;25.694;2023-03-16T14:21:34;99317.81;;;5.46;96.96